KETN/ETN METAR and TAF weather

Enter ICAO airport designator
Station Type Date Time Source
KETN METAR 2018/12/17 16:35 UTC NOAA

KETN 171635Z AUTO 00000KT 10SM CLR 07/00 A3030 RMK AO2 T00700001


Station Type Date Time Source
KETN Decoded METAR 2018/12/17 16:35 UTC NOAA

Station name not available
Dec 17, 2018 - 11:35 AM EST / 2018.12.17 1635 UTC
Wind: Calm:0
Visibility: 10 mile(s):0
Sky conditions: clear
Temperature: 44.6 F (7.0 C)
Dew Point: 32.2 F (0.1 C)
Relative Humidity: 61%
Pressure (altimeter): 30.3 in. Hg (1026 hPa)
ob: KETN 171635Z AUTO 00000KT 10SM CLR 07/00 A3030 RMK AO2 T00700001
cycle: 16

Station Type Date Time Source
KETN TAF UTC NOAA

Error!


Example: see airport list